createdAt,value
2019-03-10T00:00:31.713Z,74.49
2019-03-10T00:03:02.698Z,74.33
2019-03-10T00:05:32.985Z,74.46
2019-03-10T00:08:06.994Z,73.84
2019-03-10T00:10:40.064Z,74.02
2019-03-10T00:13:08.987Z,73.80
2019-03-10T00:15:38.070Z,73.31
2019-03-10T00:18:07.394Z,73.18
2019-03-10T00:20:36.377Z,72.91
2019-03-10T00:23:04.946Z,73.18
2019-03-10T00:25:33.718Z,72.20
2019-03-10T00:28:02.289Z,71.87
2019-03-10T00:30:34.984Z,71.74
2019-03-10T00:33:03.564Z,71.88
2019-03-10T00:35:32.688Z,71.43
2019-03-10T00:38:04.321Z,71.23
2019-03-10T00:40:59.709Z,71.28
2019-03-10T00:44:20.611Z,71.92
2019-03-10T00:47:32.931Z,71.03
2019-03-10T00:51:10.250Z,71.68
2019-03-10T00:53:40.382Z,71.65
2019-03-10T00:56:12.857Z,71.71
2019-03-10T00:58:43.162Z,71.70
2019-03-10T01:01:11.795Z,71.48
2019-03-10T01:03:40.777Z,71.41
2019-03-10T01:06:09.715Z,71.92
2019-03-10T01:08:39.691Z,71.94
2019-03-10T01:11:08.490Z,72.23
2019-03-10T01:13:38.427Z,72.43
2019-03-10T01:16:07.794Z,72.30
2019-03-10T01:18:57.626Z,72.02
2019-03-10T01:21:26.598Z,72.05
2019-03-10T01:23:56.138Z,71.69
2019-03-10T01:26:24.924Z,71.28
2019-03-10T01:28:53.484Z,71.20
2019-03-10T01:31:46.261Z,70.57
2019-03-10T01:34:57.028Z,70.46
2019-03-10T01:37:25.603Z,69.99
2019-03-10T01:39:57.018Z,69.60
2019-03-10T01:42:26.175Z,69.57
2019-03-10T01:44:55.245Z,68.87
2019-03-10T01:47:24.196Z,68.09
2019-03-10T01:49:52.762Z,68.32
2019-03-10T01:52:21.779Z,68.52
2019-03-10T01:54:53.958Z,67.91
2019-03-10T01:57:23.068Z,67.67
2019-03-10T01:59:52.030Z,67.47
2019-03-10T02:02:25.523Z,66.59
2019-03-10T02:04:54.738Z,66.15
2019-03-10T02:07:23.503Z,66.05
2019-03-10T02:09:53.647Z,65.96
2019-03-10T02:12:22.251Z,65.82
2019-03-10T02:14:50.943Z,65.93
2019-03-10T02:17:21.547Z,66.02
2019-03-10T02:19:55.144Z,66.32
2019-03-10T02:22:23.734Z,66.87
2019-03-10T02:24:53.101Z,66.59
2019-03-10T02:27:23.717Z,66.90
2019-03-10T02:29:53.823Z,67.16
2019-03-10T02:32:24.467Z,67.62
2019-03-10T02:34:55.430Z,68.18
2019-03-10T02:37:23.524Z,67.79
2019-03-10T02:39:52.253Z,67.83
2019-03-10T02:42:21.064Z,67.91
2019-03-10T02:44:51.109Z,67.93
2019-03-10T02:47:20.999Z,68.47
2019-03-10T02:49:50.282Z,69.18
2019-03-10T02:52:19.158Z,69.67
2019-03-10T02:54:49.793Z,69.21
2019-03-10T02:57:18.391Z,68.32
2019-03-10T02:59:50.114Z,68.82
2019-03-10T03:02:18.691Z,69.31
2019-03-10T03:04:47.445Z,69.51
2019-03-10T03:07:16.386Z,70.09
2019-03-10T03:09:44.974Z,70.43
2019-03-10T03:12:13.915Z,70.72
2019-03-10T03:14:42.657Z,70.85
2019-03-10T03:17:12.991Z,71.14
2019-03-10T03:19:41.584Z,71.41
2019-03-10T03:22:10.542Z,71.54
2019-03-10T03:24:42.281Z,71.56
2019-03-10T03:27:12.491Z,71.60
2019-03-10T03:29:41.257Z,71.31
2019-03-10T03:32:09.834Z,71.33
2019-03-10T03:34:41.784Z,71.57
2019-03-10T03:37:13.855Z,70.99
2019-03-10T03:39:47.981Z,71.02
2019-03-10T03:42:16.731Z,71.31
2019-03-10T03:44:47.768Z,71.46
2019-03-10T03:47:16.518Z,71.69
2019-03-10T03:49:45.279Z,71.59
2019-03-10T03:52:14.830Z,71.54
2019-03-10T03:54:44.810Z,71.67
2019-03-10T03:57:15.405Z,71.53
2019-03-10T03:59:46.048Z,71.62
2019-03-10T04:02:49.235Z,71.88
2019-03-10T04:05:17.833Z,71.90
2019-03-10T04:07:46.610Z,72.10
2019-03-10T04:10:16.906Z,71.90
2019-03-10T04:12:45.546Z,71.64
2019-03-10T04:15:15.658Z,71.56
2019-03-10T04:17:44.419Z,70.63
2019-03-10T04:20:13.193Z,70.90
2019-03-10T04:22:41.810Z,71.27
2019-03-10T04:25:10.711Z,71.40
2019-03-10T04:27:39.916Z,71.11
2019-03-10T04:30:09.149Z,70.88
2019-03-10T04:32:38.608Z,70.73
2019-03-10T04:35:07.221Z,70.90
2019-03-10T04:37:35.821Z,70.98
2019-03-10T04:40:04.841Z,71.56
2019-03-10T04:42:33.853Z,71.74
2019-03-10T04:45:02.974Z,72.41
2019-03-10T04:47:34.161Z,72.82
2019-03-10T04:50:03.401Z,70.08
2019-03-10T04:52:31.951Z,70.50
2019-03-10T04:55:20.113Z,68.57
2019-03-10T04:58:01.176Z,66.92
2019-03-10T05:00:30.665Z,67.66
2019-03-10T05:03:01.405Z,68.93
2019-03-10T05:05:32.186Z,67.27
2019-03-10T05:08:00.765Z,67.61
2019-03-10T05:10:33.019Z,67.09
2019-03-10T05:13:01.765Z,67.37
2019-03-10T05:15:32.244Z,66.21
2019-03-10T05:18:01.199Z,65.27
2019-03-10T05:20:29.781Z,65.82
2019-03-10T05:23:31.252Z,66.77
2019-03-10T05:25:59.839Z,66.35
2019-03-10T05:28:30.797Z,66.89
2019-03-10T05:30:59.434Z,67.68
2019-03-10T05:33:30.760Z,68.91
2019-03-10T05:36:03.925Z,69.69
2019-03-10T05:38:32.478Z,70.70
2019-03-10T05:41:05.262Z,71.08
2019-03-10T05:43:35.278Z,72.12
2019-03-10T05:46:03.878Z,72.37
2019-03-10T05:48:32.435Z,73.45
2019-03-10T05:51:01.016Z,74.88
2019-03-10T05:53:29.585Z,75.12
2019-03-10T05:55:59.084Z,76.00
2019-03-10T05:58:28.048Z,76.94
2019-03-10T06:01:00.144Z,77.72
2019-03-10T06:03:28.878Z,77.60
2019-03-10T06:05:58.089Z,78.17
2019-03-10T06:08:26.841Z,77.92
2019-03-10T06:10:59.601Z,78.32
2019-03-10T06:13:28.151Z,78.53
2019-03-10T06:15:57.349Z,78.49
2019-03-10T06:18:25.909Z,79.06
2019-03-10T06:20:56.186Z,79.53
2019-03-10T06:23:24.753Z,79.99
2019-03-10T06:25:53.345Z,79.64
2019-03-10T06:28:22.119Z,80.05
2019-03-10T06:30:50.706Z,80.43
2019-03-10T06:33:23.037Z,81.04
2019-03-10T06:35:53.041Z,81.07
2019-03-10T06:38:22.169Z,81.07
2019-03-10T06:40:52.614Z,81.56
2019-03-10T06:43:22.861Z,81.47
2019-03-10T06:45:51.431Z,81.39
2019-03-10T06:48:21.492Z,81.83
2019-03-10T06:50:51.871Z,82.01
2019-03-10T06:53:20.488Z,82.15
2019-03-10T06:55:52.705Z,82.47
2019-03-10T06:58:21.477Z,82.50
2019-03-10T07:00:54.076Z,82.68
2019-03-10T07:03:22.971Z,82.70
2019-03-10T07:05:54.951Z,82.93
2019-03-10T07:08:25.252Z,82.99
2019-03-10T07:10:53.845Z,83.18
2019-03-10T07:13:24.089Z,83.42
2019-03-10T07:15:52.676Z,83.91
2019-03-10T07:18:21.574Z,84.11
2019-03-10T07:20:51.657Z,84.17
2019-03-10T07:23:22.462Z,84.04
2019-03-10T07:26:06.148Z,84.35
2019-03-10T07:28:54.153Z,84.12
2019-03-10T07:31:27.300Z,84.24
2019-03-10T07:34:08.612Z,84.36
2019-03-10T07:36:56.267Z,84.18
2019-03-10T07:39:56.199Z,83.89
2019-03-10T07:42:39.779Z,83.42
2019-03-10T07:45:18.878Z,82.83
2019-03-10T07:48:04.899Z,82.78
2019-03-10T07:50:51.491Z,83.47
2019-03-10T07:53:38.110Z,83.68
2019-03-10T07:56:26.962Z,84.16
2019-03-10T07:59:14.608Z,84.31
2019-03-10T08:01:49.455Z,84.40
2019-03-10T08:04:40.761Z,84.68
2019-03-10T08:07:26.645Z,84.73
2019-03-10T08:10:09.440Z,85.02
2019-03-10T08:12:54.024Z,85.48
2019-03-10T08:15:42.205Z,84.95
2019-03-10T08:18:28.940Z,85.41
2019-03-10T08:21:18.190Z,83.88
2019-03-10T08:23:59.529Z,83.94
2019-03-10T08:26:53.420Z,84.08
2019-03-10T08:29:36.467Z,83.60
2019-03-10T08:32:22.416Z,83.60
2019-03-10T08:34:56.634Z,82.98
2019-03-10T08:37:33.597Z,81.65
2019-03-10T08:40:18.275Z,81.51
2019-03-10T08:43:02.937Z,80.77
2019-03-10T08:46:03.499Z,80.39
2019-03-10T08:49:02.213Z,79.93
2019-03-10T08:51:46.613Z,80.30
2019-03-10T08:54:21.053Z,80.33
2019-03-10T08:57:14.779Z,80.78
2019-03-10T08:59:59.882Z,79.66
2019-03-10T09:02:43.089Z,79.20
2019-03-10T09:05:38.675Z,80.48
2019-03-10T09:08:27.068Z,80.37
2019-03-10T09:11:15.380Z,81.52
2019-03-10T09:14:03.030Z,81.97
2019-03-10T09:17:05.565Z,82.21
2019-03-10T09:19:56.508Z,81.77
2019-03-10T09:22:42.750Z,81.87
2019-03-10T09:25:46.907Z,82.81
2019-03-10T09:28:38.038Z,82.55
2019-03-10T09:31:16.787Z,82.94
2019-03-10T09:33:51.102Z,83.49
2019-03-10T09:36:37.660Z,82.99
2019-03-10T09:39:27.735Z,82.28
2019-03-10T09:42:14.104Z,82.29
2019-03-10T09:45:00.608Z,81.65
2019-03-10T09:47:51.122Z,82.77
2019-03-10T09:50:39.163Z,81.49
2019-03-10T09:53:26.358Z,80.83
2019-03-10T09:56:28.700Z,81.24
2019-03-10T09:59:19.403Z,81.02
2019-03-10T10:02:05.254Z,82.10
2019-03-10T10:04:51.458Z,81.47
2019-03-10T10:07:37.690Z,81.80
2019-03-10T10:10:24.341Z,82.89
2019-03-10T10:13:24.104Z,83.16
2019-03-10T10:16:21.893Z,82.22
2019-03-10T10:19:07.416Z,82.47
2019-03-10T10:22:09.264Z,82.92
2019-03-10T10:24:44.706Z,83.04
2019-03-10T10:27:34.781Z,82.35
2019-03-10T10:30:17.713Z,81.96
2019-03-10T10:32:55.408Z,83.03
2019-03-10T10:35:49.313Z,83.52
2019-03-10T10:38:39.736Z,83.99
2019-03-10T10:41:25.190Z,83.82
2019-03-10T10:44:11.709Z,83.64
2019-03-10T10:47:01.080Z,83.54
2019-03-10T10:49:58.712Z,82.72
2019-03-10T10:52:47.191Z,81.56
2019-03-10T10:55:32.755Z,81.45
2019-03-10T10:58:12.600Z,82.42
2019-03-10T11:00:57.185Z,81.90
2019-03-10T11:03:45.029Z,81.64
2019-03-10T11:06:49.653Z,81.65
2019-03-10T11:09:49.261Z,82.00
2019-03-10T11:12:29.100Z,81.19
2019-03-10T11:15:05.953Z,82.03
2019-03-10T11:17:52.662Z,83.15
2019-03-10T11:20:31.075Z,82.49
2019-03-10T11:23:17.746Z,83.53
2019-03-10T11:25:57.661Z,84.54
2019-03-10T11:28:54.747Z,83.82
2019-03-10T11:31:37.848Z,84.64
2019-03-10T11:34:43.487Z,84.84
2019-03-10T11:37:35.612Z,85.13
2019-03-10T11:40:46.083Z,84.93
2019-03-10T11:43:37.714Z,85.37
2019-03-10T11:46:26.812Z,85.30
2019-03-10T11:49:11.815Z,85.59
2019-03-10T11:51:54.695Z,85.71
2019-03-10T11:54:47.317Z,86.21
2019-03-10T11:57:41.189Z,86.46
2019-03-10T12:00:40.499Z,86.87
2019-03-10T12:03:37.200Z,86.55
2019-03-10T12:06:33.791Z,86.57
2019-03-10T12:09:33.297Z,87.31
2019-03-10T12:12:02.096Z,87.49
2019-03-10T12:14:31.267Z,87.77
2019-03-10T12:17:01.589Z,86.63
2019-03-10T12:19:30.784Z,86.75
2019-03-10T12:21:59.450Z,86.18
2019-03-10T12:24:28.009Z,86.25
2019-03-10T12:26:59.992Z,86.10
2019-03-10T12:29:32.205Z,85.57
2019-03-10T12:32:01.345Z,86.54
2019-03-10T12:34:29.897Z,86.56
2019-03-10T12:37:00.229Z,86.76
2019-03-10T12:39:29.153Z,86.44
2019-03-10T12:41:58.980Z,86.98
2019-03-10T12:44:34.425Z,86.48
2019-03-10T12:47:05.877Z,86.71
2019-03-10T12:49:34.463Z,86.33
2019-03-10T12:52:04.689Z,85.94
2019-03-10T12:54:33.276Z,86.40
2019-03-10T12:57:06.637Z,86.64
2019-03-10T12:59:35.381Z,86.91
2019-03-10T13:02:07.253Z,86.76
2019-03-10T13:04:36.174Z,86.58
2019-03-10T13:07:07.380Z,87.09
2019-03-10T13:09:36.153Z,87.08
2019-03-10T13:12:04.733Z,87.03
2019-03-10T13:14:38.236Z,87.19
2019-03-10T13:17:08.113Z,87.26
2019-03-10T13:19:37.132Z,86.64
2019-03-10T13:22:06.053Z,86.99
2019-03-10T13:24:37.943Z,86.99
2019-03-10T13:27:06.539Z,87.18
2019-03-10T13:29:35.171Z,87.01
2019-03-10T13:32:05.735Z,87.32
2019-03-10T13:34:34.756Z,87.67
2019-03-10T13:37:03.603Z,87.28
2019-03-10T13:39:35.284Z,87.13
2019-03-10T13:42:03.864Z,86.98
2019-03-10T13:44:35.607Z,85.83
2019-03-10T13:47:06.434Z,85.07
2019-03-10T13:49:35.621Z,85.51
2019-03-10T13:52:07.318Z,85.49
2019-03-10T13:54:36.270Z,86.09
2019-03-10T13:57:05.457Z,85.23
2019-03-10T13:59:37.645Z,85.70
2019-03-10T14:02:06.662Z,86.12
2019-03-10T14:04:35.288Z,86.41
2019-03-10T14:07:10.276Z,86.66
2019-03-10T14:09:39.496Z,87.05
2019-03-10T14:12:09.706Z,87.57
2019-03-10T14:14:39.299Z,86.61
2019-03-10T14:17:11.382Z,86.05
2019-03-10T14:19:40.305Z,86.52
2019-03-10T14:22:08.881Z,87.27
2019-03-10T14:24:37.928Z,87.64
2019-03-10T14:27:07.865Z,87.95
2019-03-10T14:29:36.462Z,88.05
2019-03-10T14:32:07.132Z,88.02
2019-03-10T14:34:35.978Z,88.12
2019-03-10T14:37:04.922Z,88.63
2019-03-10T14:39:35.121Z,88.85
2019-03-10T14:42:05.317Z,89.00
2019-03-10T14:44:35.029Z,89.03
2019-03-10T14:47:05.918Z,88.68
2019-03-10T14:49:34.524Z,88.79
2019-03-10T14:52:06.324Z,88.95
2019-03-10T14:54:34.928Z,89.22
2019-03-10T14:57:03.841Z,89.04
2019-03-10T14:59:32.893Z,89.29
2019-03-10T15:02:01.836Z,89.24
2019-03-10T15:04:30.449Z,89.43
2019-03-10T15:06:59.003Z,87.93
2019-03-10T15:09:27.561Z,83.78
2019-03-10T15:11:56.460Z,83.88
2019-03-10T15:14:25.625Z,82.76
2019-03-10T15:17:01.568Z,80.32
2019-03-10T15:19:24.579Z,80.12
2019-03-10T15:22:14.394Z,77.57
2019-03-10T15:24:42.984Z,75.14
2019-03-10T15:27:11.539Z,75.14
2019-03-10T15:29:40.515Z,72.50
2019-03-10T15:32:11.457Z,72.50
2019-03-10T15:34:42.046Z,73.48
2019-03-10T15:37:12.553Z,70.56
2019-03-10T15:39:42.031Z,70.05
2019-03-10T15:42:14.016Z,68.78
2019-03-10T15:44:42.753Z,66.65
2019-03-10T15:47:11.503Z,66.46
2019-03-10T15:49:43.446Z,66.46
2019-03-10T15:52:12.099Z,67.02
2019-03-10T15:54:44.317Z,69.65
2019-03-10T15:57:16.288Z,69.58
2019-03-10T15:59:46.318Z,71.83
2019-03-10T16:02:17.195Z,72.74
2019-03-10T16:04:45.946Z,71.98
2019-03-10T16:07:15.846Z,73.52
2019-03-10T16:09:44.851Z,72.47
2019-03-10T16:12:14.174Z,73.77
2019-03-10T16:14:42.829Z,74.78
2019-03-10T16:17:11.785Z,75.37
2019-03-10T16:19:45.641Z,74.71
2019-03-10T16:22:14.278Z,74.73
2019-03-10T16:24:46.455Z,75.84
2019-03-10T16:27:23.408Z,76.73
2019-03-10T16:29:52.426Z,78.20
2019-03-10T16:32:22.013Z,80.08
2019-03-10T16:34:52.303Z,79.67
2019-03-10T16:37:21.612Z,79.27
2019-03-10T16:39:50.546Z,78.89
2019-03-10T16:42:20.739Z,79.58
2019-03-10T16:44:51.263Z,80.23
2019-03-10T16:47:19.925Z,80.53
2019-03-10T16:49:50.220Z,80.73
2019-03-10T16:52:20.421Z,80.41
2019-03-10T16:54:49.846Z,81.36
2019-03-10T16:57:18.471Z,80.69
2019-03-10T16:59:52.283Z,79.27
2019-03-10T17:02:21.289Z,78.61
2019-03-10T17:04:53.339Z,77.92
2019-03-10T17:07:22.320Z,78.02
2019-03-10T17:09:51.549Z,76.64
2019-03-10T17:12:22.025Z,78.73
2019-03-10T17:14:50.740Z,79.40
2019-03-10T17:17:20.119Z,78.39
2019-03-10T17:19:54.837Z,79.47
2019-03-10T17:22:23.431Z,79.78
2019-03-10T17:24:54.357Z,79.64
2019-03-10T17:27:23.121Z,83.29
2019-03-10T17:29:55.440Z,84.66
2019-03-10T17:32:26.110Z,84.79
2019-03-10T17:34:55.135Z,85.35
2019-03-10T17:37:24.665Z,85.46
2019-03-10T17:39:53.731Z,84.71
2019-03-10T17:42:24.035Z,85.10
2019-03-10T17:44:52.740Z,85.66
2019-03-10T17:47:26.724Z,85.96
2019-03-10T17:49:53.388Z,86.58
2019-03-10T17:52:22.187Z,87.50
2019-03-10T17:54:56.487Z,86.15
2019-03-10T17:57:25.486Z,86.81
2019-03-10T17:59:54.370Z,86.81
2019-03-10T18:02:29.031Z,86.67
2019-03-10T18:04:58.055Z,86.99
2019-03-10T18:07:28.810Z,86.55
2019-03-10T18:09:58.152Z,87.02
2019-03-10T18:12:26.834Z,86.81
2019-03-10T18:14:55.407Z,86.92
2019-03-10T18:17:24.582Z,86.69
2019-03-10T18:19:55.260Z,86.64
2019-03-10T18:22:23.841Z,86.55
2019-03-10T18:24:52.918Z,86.98
2019-03-10T18:27:24.513Z,86.67
2019-03-10T18:29:53.101Z,87.07
2019-03-10T18:32:25.156Z,87.01
2019-03-10T18:34:55.795Z,87.29
2019-03-10T18:37:25.951Z,87.17
2019-03-10T18:39:57.906Z,86.70
2019-03-10T18:42:27.275Z,87.18
2019-03-10T18:44:58.024Z,86.71
2019-03-10T18:47:26.661Z,86.11
2019-03-10T18:49:58.763Z,85.56
2019-03-10T18:52:33.237Z,85.58
2019-03-10T18:55:03.989Z,85.89
2019-03-10T18:57:35.036Z,85.84
2019-03-10T19:00:05.867Z,85.40
2019-03-10T19:02:36.670Z,85.30
2019-03-10T19:05:07.023Z,85.83
2019-03-10T19:07:37.570Z,85.43
2019-03-10T19:10:09.685Z,84.78
2019-03-10T19:12:39.721Z,84.76
2019-03-10T19:15:10.954Z,85.41
2019-03-10T19:17:39.695Z,85.62
2019-03-10T19:20:09.157Z,85.67
2019-03-10T19:22:39.430Z,85.66
2019-03-10T19:25:12.947Z,85.51
2019-03-10T19:27:44.295Z,85.11
2019-03-10T19:30:19.200Z,85.74
2019-03-10T19:32:48.525Z,85.59
2019-03-10T19:35:17.188Z,85.18
2019-03-10T19:37:46.085Z,85.28
2019-03-10T19:40:14.736Z,85.64
2019-03-10T19:42:44.987Z,85.27
2019-03-10T19:45:14.602Z,85.19
2019-03-10T19:47:48.301Z,85.30
2019-03-10T19:50:16.957Z,84.99
2019-03-10T19:52:47.278Z,85.25
2019-03-10T19:55:16.393Z,84.67
2019-03-10T19:57:45.414Z,84.81
2019-03-10T20:00:17.122Z,84.53
2019-03-10T20:02:50.124Z,83.87
2019-03-10T20:05:21.371Z,84.53
2019-03-10T20:07:52.360Z,84.04
2019-03-10T20:10:20.986Z,84.17
2019-03-10T20:12:50.486Z,84.61
2019-03-10T20:15:19.919Z,84.08
2019-03-10T20:17:52.094Z,84.33
2019-03-10T20:20:21.069Z,84.17
2019-03-10T20:22:53.749Z,83.81
2019-03-10T20:25:22.381Z,84.85
2019-03-10T20:27:51.420Z,84.45
2019-03-10T20:30:21.555Z,84.87
2019-03-10T20:32:50.142Z,85.00
2019-03-10T20:35:19.775Z,84.89
2019-03-10T20:37:48.425Z,85.02
2019-03-10T20:40:20.481Z,84.45
2019-03-10T20:42:51.042Z,84.69
2019-03-10T20:45:24.943Z,85.09
2019-03-10T20:48:02.096Z,84.98
2019-03-10T20:50:30.723Z,84.67
2019-03-10T20:52:59.870Z,84.97
2019-03-10T20:55:30.001Z,85.47
2019-03-10T20:58:00.327Z,85.11
2019-03-10T21:00:28.955Z,84.81
2019-03-10T21:03:01.215Z,85.32
2019-03-10T21:05:35.269Z,85.54
2019-03-10T21:08:04.287Z,84.97
2019-03-10T21:10:36.237Z,84.97
2019-03-10T21:13:06.527Z,84.17
2019-03-10T21:15:38.744Z,85.16
2019-03-10T21:18:07.362Z,85.15
2019-03-10T21:20:36.126Z,85.40
2019-03-10T21:23:04.888Z,85.70
2019-03-10T21:25:33.937Z,85.45
2019-03-10T21:28:02.871Z,85.46
2019-03-10T21:30:34.687Z,85.55
2019-03-10T21:33:06.765Z,85.41
2019-03-10T21:35:35.785Z,85.10
2019-03-10T21:38:06.445Z,85.89
2019-03-10T21:40:38.319Z,86.14
2019-03-10T21:43:07.665Z,86.27
2019-03-10T21:45:40.001Z,86.48
2019-03-10T21:48:08.771Z,86.53
2019-03-10T21:50:41.133Z,86.53
2019-03-10T21:53:10.595Z,86.36
2019-03-10T21:55:40.273Z,85.89
2019-03-10T21:58:13.728Z,85.20
2019-03-10T22:00:42.410Z,84.89
2019-03-10T22:03:10.893Z,84.94
2019-03-10T22:05:40.974Z,84.63
2019-03-10T22:08:09.562Z,84.70
2019-03-10T22:10:40.081Z,83.66
2019-03-10T22:13:10.351Z,84.00
2019-03-10T22:15:41.918Z,83.64
2019-03-10T22:18:10.199Z,82.65
2019-03-10T22:20:41.267Z,82.52
2019-03-10T22:23:11.200Z,82.16
2019-03-10T22:25:40.232Z,83.07
2019-03-10T22:28:12.208Z,83.29
2019-03-10T22:30:41.236Z,82.54
2019-03-10T22:33:10.587Z,83.52
2019-03-10T22:35:39.183Z,83.53
2019-03-10T22:38:08.166Z,83.71
2019-03-10T22:40:38.063Z,83.71
2019-03-10T22:43:06.616Z,83.54
2019-03-10T22:45:39.098Z,83.63
2019-03-10T22:48:09.678Z,82.86
2019-03-10T22:50:38.658Z,83.02
2019-03-10T22:53:09.186Z,83.07
2019-03-10T22:55:38.080Z,82.80
2019-03-10T22:58:07.696Z,83.06
2019-03-10T23:00:47.449Z,82.40
2019-03-10T23:03:16.323Z,82.25
2019-03-10T23:05:46.927Z,82.23
2019-03-10T23:08:20.682Z,82.53
2019-03-10T23:10:52.542Z,82.34
2019-03-10T23:13:23.170Z,81.52
2019-03-10T23:15:53.658Z,82.38
2019-03-10T23:18:23.011Z,82.26
2019-03-10T23:20:53.577Z,82.16
2019-03-10T23:23:23.512Z,81.09
2019-03-10T23:25:52.471Z,81.54
2019-03-10T23:28:21.956Z,81.29
2019-03-10T23:30:50.922Z,81.18
2019-03-10T23:33:19.837Z,80.89
2019-03-10T23:35:50.565Z,81.09
2019-03-10T23:38:19.307Z,80.30
2019-03-10T23:40:47.897Z,80.14
2019-03-10T23:43:16.831Z,79.86
2019-03-10T23:45:45.403Z,79.14
2019-03-10T23:48:14.381Z,79.87
2019-03-10T23:50:46.028Z,79.91
2019-03-10T23:53:14.639Z,79.25
2019-03-10T23:55:43.232Z,79.64
2019-03-10T23:58:12.426Z,80.11
